Terminal Aerodrome Forecast
Issued by NWS

Home | Current Version | Previous Version | Text Only | Print | Product List | Glossary On
Versions: 1 2 3 4 5 6 7 8 9 10 11 12 13 14 15 16 17 18 19 20 21 22 23 24 25 26 27 28 29 30 31 32 33 34 35 36 37 38 39 40 41 42
000
FTUS41 KILN 202348
TAFLCK
TAF
KLCK 202348Z 2100/2124 18007KT P6SM VCSH OVC060
     FM210400 20006KT P6SM -SHRA OVC025
     FM210900 22005KT P6SM -SHRA OVC015
     FM211300 26004KT P6SM VCSH OVC007
     FM211500 29006KT P6SM -SHRA OVC013
     FM211700 31006KT P6SM OVC026=

USA.gov is the U.S. government's official web portal to all federal, state and local government web resources and services.